Philomath, Georgia
Current Conditions -  °F | °C
As of 10:15 AM on Wednesday 22 Oct 2014 (Local Time) from KIIY Reporting Station
Clear Clear  
Wind Chill: 61°   Ceiling: Unl
Heat Index: 61°   Visibility: 10mi
Dew Point: 50°   Wind: 5mph
Humidity: 68%   Direction: 70°ENE
Pressure: 30.11"   Gusts: NA
Location:  33.8191°N, 82.8917°W
Report Text: KIIY 221415Z AUTO 07004KT 10SM CLR 16/10 A3011 RMK AO2
Loading
Personal Weather Stations






























Interactive Weather Map
Tropical Storm Tracking
New forecast layout! Learn more

10-Day Weather Forecast

Advertisements
Track Severe Weather on mobile